Time;durP1;ratioP1;P1;durP2;ratioP2;P2;SDS_P1;SDS_P2;PMS_P1;PMS_P2;Temp;Humidity;BMP_temperature;BMP_pressure;BME280_temperature;BME280_humidity;BME280_pressure;Samples;Min_cycle;Max_cycle;Signal;HPM_P1;HPM_P2
2023/04/22 00:02:02;;;;;;;5.35;3.25;;;;;;;12.15;93.75;99312.38;4964363;28;20081;-87
2023/04/22 00:04:32;;;;;;;5.60;3.28;;;;;;;12.13;93.63;99315.19;4955159;28;20529;-88
2023/04/22 00:07:01;;;;;;;7.75;3.50;;;;;;;12.15;93.56;99315.03;4969133;28;20502;-87
2023/04/22 00:09:31;;;;;;;14.60;3.80;;;;;;;12.10;93.44;99318.16;4976408;28;20049;-88
2023/04/22 00:12:03;;;;;;;7.10;3.38;;;;;;;12.07;93.45;99309.66;4966948;28;20050;-88
2023/04/22 00:14:38;;;;;;;6.85;3.10;;;;;;;12.06;93.52;99316.81;4965559;28;20637;-88
2023/04/22 00:17:21;;;;;;;6.07;3.25;;;;;;;12.00;93.56;99317.44;4972333;28;20042;-88
2023/04/22 00:19:55;;;;;;;6.13;3.70;;;;;;;12.03;93.46;99314.47;4954816;28;20569;-88
2023/04/22 00:22:22;;;;;;;7.75;4.13;;;;;;;12.03;93.10;99313.63;4968781;28;20045;-89
2023/04/22 00:24:48;;;;;;;5.18;3.80;;;;;;;12.04;93.07;99320.63;4974114;28;20538;-88
2023/04/22 00:27:21;;;;;;;8.95;4.13;;;;;;;12.02;93.05;99318.13;4973642;28;20060;-88
2023/04/22 00:29:51;;;;;;;9.65;5.00;;;;;;;11.98;93.25;99316.75;4998544;28;20112;-87
2023/04/22 00:32:18;;;;;;;10.80;5.55;;;;;;;11.97;93.20;99314.28;4967444;28;20569;-88
2023/04/22 00:34:52;;;;;;;9.75;4.68;;;;;;;11.99;92.92;99318.44;4965899;28;20049;-88
2023/04/22 00:37:23;;;;;;;14.23;5.13;;;;;;;11.95;93.00;99306.44;4929502;28;20076;-89
2023/04/22 00:39:59;;;;;;;10.10;5.07;;;;;;;11.91;93.00;99318.41;4979595;28;20494;-88
2023/04/22 00:42:39;;;;;;;11.63;5.15;;;;;;;11.92;92.83;99326.22;4967623;28;20518;-88
2023/04/22 00:45:10;;;;;;;12.73;5.13;;;;;;;11.95;92.92;99327.72;4966700;28;20053;-88
2023/04/22 00:47:38;;;;;;;13.13;5.07;;;;;;;11.96;92.84;99318.75;4959512;28;20068;-89
2023/04/22 00:50:12;;;;;;;10.13;5.38;;;;;;;11.97;92.57;99319.59;4960267;28;20485;-87
2023/04/22 00:52:43;;;;;;;12.65;6.30;;;;;;;11.95;93.10;99319.75;4930339;28;20581;-87
2023/04/22 00:55:19;;;;;;;10.90;5.82;;;;;;;11.93;93.03;99316.38;4958963;28;20610;-88
2023/04/22 00:57:53;;;;;;;12.10;6.00;;;;;;;11.93;93.11;99319.06;4929208;28;20517;-88
2023/04/22 01:00:27;;;;;;;12.70;5.45;;;;;;;11.90;93.13;99312.22;4971304;28;20050;-89
2023/04/22 01:02:56;;;;;;;11.57;6.00;;;;;;;11.95;93.01;99317.91;4962625;28;20433;-88
2023/04/22 01:05:32;;;;;;;10.50;5.60;;;;;;;11.87;93.39;99309.06;5008011;28;20053;-88
2023/04/22 01:07:59;;;;;;;12.87;6.03;;;;;;;11.90;93.12;99312.22;4995450;28;20067;-88
2023/04/22 01:10:32;;;;;;;9.20;5.70;;;;;;;11.89;92.98;99313.22;4980641;28;20044;-88
2023/04/22 01:13:09;;;;;;;10.63;5.38;;;;;;;11.87;93.27;99306.41;4973973;28;20135;-88
2023/04/22 01:15:38;;;;;;;10.48;5.97;;;;;;;11.90;93.11;99312.22;4989938;28;20041;-88
2023/04/22 01:18:09;;;;;;;11.30;5.30;;;;;;;11.84;93.29;99309.34;4954616;28;20042;-88
2023/04/22 01:20:42;;;;;;;13.90;6.10;;;;;;;11.82;93.38;99306.81;4953135;28;20128;-88
2023/04/22 01:23:21;;;;;;;13.35;6.57;;;;;;;11.86;92.87;99308.22;4969449;28;20041;-88
2023/04/22 01:25:51;;;;;;;17.00;7.80;;;;;;;11.86;93.15;99310.88;4972543;28;20588;-88
2023/04/22 01:28:25;;;;;;;21.00;8.90;;;;;;;11.86;93.15;99310.88;4985130;28;20061;-88
2023/04/22 01:31:08;;;;;;;18.55;8.10;;;;;;;11.93;92.78;99303.09;4921230;28;20045;-87
2023/04/22 01:33:38;;;;;;;16.40;7.57;;;;;;;11.98;92.83;99305.28;4965378;28;20502;-88
2023/04/22 01:36:07;;;;;;;14.60;7.40;;;;;;;11.94;92.87;99302.13;4981577;28;20383;-89
2023/04/22 01:38:39;;;;;;;15.07;7.70;;;;;;;11.92;92.74;99309.41;4994842;28;20128;-88
2023/04/22 01:41:13;;;;;;;13.68;7.20;;;;;;;11.87;92.64;99309.88;4965676;28;20055;-88
2023/04/22 01:43:50;;;;;;;13.23;6.18;;;;;;;11.87;92.76;99314.38;4978726;28;20065;-88
2023/04/22 01:46:20;;;;;;;13.63;6.93;;;;;;;11.88;92.81;99313.38;4954153;28;20053;-89
2023/04/22 01:48:50;;;;;;;8.93;5.25;;;;;;;11.84;93.09;99310.16;4962520;28;20589;-88
2023/04/22 01:51:23;;;;;;;15.30;6.72;;;;;;;11.88;92.85;99316.03;4944833;28;20057;-88
2023/04/22 01:53:58;;;;;;;11.50;5.90;;;;;;;11.81;93.16;99314.97;4963591;28;20057;-89
2023/04/22 01:56:28;;;;;;;13.52;5.93;;;;;;;11.86;92.70;99318.00;4970394;28;20061;-88
2023/04/22 01:59:00;;;;;;;9.75;5.47;;;;;;;11.82;92.80;99319.28;4963961;28;20063;-88
2023/04/22 02:01:41;;;;;;;13.88;6.05;;;;;;;11.81;92.86;99320.31;4961783;28;20042;-88
2023/04/22 02:04:17;;;;;;;10.32;5.55;;;;;;;11.85;92.92;99322.47;4917061;28;20057;-87
2023/04/22 02:06:59;;;;;;;9.68;5.47;;;;;;;11.79;92.79;99322.28;4938630;28;20494;-87
2023/04/22 02:09:32;;;;;;;;;;;;;;;11.62;93.73;99323.97;4937453;28;20132;-88
2023/04/22 02:12:05;;;;;;;;;;;;;;;11.64;93.22;99329.97;4961846;28;19924;-88
2023/04/22 02:14:38;;;;;;;12.27;5.43;;;;;;;11.79;92.77;99330.25;4848840;28;20409;-88
2023/04/22 02:17:18;;;;;;;11.00;5.28;;;;;;;11.74;92.80;99322.75;4934697;28;20049;-88
2023/04/22 02:19:54;;;;;;;13.98;5.60;;;;;;;11.82;92.55;99324.63;4900360;28;20048;-88
2023/04/22 02:22:36;;;;;;;12.95;5.22;;;;;;;11.79;92.58;99324.94;4945869;28;20050;-89
2023/04/22 02:25:11;;;;;;;10.45;5.20;;;;;;;11.80;92.54;99332.75;4965834;28;20144;-89
2023/04/22 02:27:41;;;;;;;10.63;5.38;;;;;;;11.77;92.44;99330.41;4941472;28;20056;-88
2023/04/22 02:30:15;;;;;;;10.73;5.45;;;;;;;11.74;92.54;99328.88;4967607;28;20611;-88
2023/04/22 02:32:55;;;;;;;12.02;6.05;;;;;;;11.77;92.40;99329.56;4967336;28;20077;-88
2023/04/22 02:35:34;;;;;;;11.85;5.43;;;;;;;11.71;92.38;99339.84;4928404;28;20056;-88
2023/04/22 02:38:07;;;;;;;10.18;5.57;;;;;;;11.72;92.46;99338.00;4884895;28;20049;-88
2023/04/22 02:40:39;;;;;;;12.90;5.57;;;;;;;11.73;92.29;99343.19;4949819;28;20057;-88
2023/04/22 02:43:19;;;;;;;13.85;6.22;;;;;;;11.70;92.33;99334.66;4891202;28;20049;-89
2023/04/22 02:46:19;;;;;;;11.40;5.13;;;;;;;11.72;92.25;99338.00;4852317;28;20088;-88
2023/04/22 02:48:58;;;;;;;13.88;6.05;;;;;;;11.68;92.31;99340.16;4940930;28;20042;-89
2023/04/22 02:51:31;;;;;;;12.30;5.95;;;;;;;11.66;92.21;99336.81;4922387;28;20060;-88
2023/04/22 02:54:08;;;;;;;17.40;6.43;;;;;;;11.60;92.32;99329.47;4926510;28;20057;-89
2023/04/22 02:56:43;;;;;;;14.30;6.00;;;;;;;11.56;92.10;99332.59;4939140;28;20048;-88
2023/04/22 02:59:17;;;;;;;12.90;5.45;;;;;;;11.55;92.00;99338.88;4952302;28;20072;-89
2023/04/22 03:02:00;;;;;;;7.03;4.80;;;;;;;11.59;91.72;99333.09;4918549;28;20050;-88
2023/04/22 03:04:53;;;;;;;12.05;4.65;;;;;;;11.57;92.14;99334.25;4927786;28;20052;-88
2023/04/22 03:07:46;;;;;;;11.07;5.22;;;;;;;11.55;91.90;99338.88;4912625;28;20049;-88
2023/04/22 03:10:25;;;;;;;9.63;4.60;;;;;;;11.58;91.83;99331.44;4891099;28;20089;-87
2023/04/22 03:13:27;;;;;;;12.90;5.82;;;;;;;11.57;91.89;99335.06;4903351;28;20410;-88
2023/04/22 03:16:00;;;;;;;10.02;4.80;;;;;;;11.57;92.14;99339.56;4963572;28;20399;-89
2023/04/22 03:18:38;;;;;;;9.75;5.10;;;;;;;11.59;91.83;99337.59;4941820;28;20460;-89
2023/04/22 03:21:08;;;;;;;13.60;5.45;;;;;;;11.60;92.09;99339.25;4928406;28;20049;-88
2023/04/22 03:23:50;;;;;;;13.30;5.75;;;;;;;11.57;92.19;99342.22;4916909;28;20041;-89
2023/04/22 03:26:36;;;;;;;15.75;5.72;;;;;;;11.52;91.88;99332.91;4928015;28;20056;-88
2023/04/22 03:29:05;;;;;;;11.07;5.90;;;;;;;11.57;91.97;99337.72;4952373;28;20049;-88
2023/04/22 03:31:44;;;;;;;17.55;6.53;;;;;;;11.54;91.60;99350.50;4930112;28;20146;-88
2023/04/22 03:34:19;;;;;;;16.25;5.57;;;;;;;11.58;91.85;99354.53;4950818;28;20049;-89
2023/04/22 03:36:52;;;;;;;8.77;5.15;;;;;;;11.56;91.45;99344.03;4935896;28;20558;-88
2023/04/22 03:39:26;;;;;;;13.55;6.15;;;;;;;11.58;91.60;99349.22;4906908;28;20057;-89
2023/04/22 03:42:09;;;;;;;14.38;5.22;;;;;;;11.51;91.56;99344.50;4936654;28;20201;-88
2023/04/22 03:44:41;;;;;;;10.50;6.10;;;;;;;11.59;91.35;99343.72;4894837;28;20054;-88
2023/04/22 03:47:29;;;;;;;10.80;4.90;;;;;;;11.52;91.54;99348.84;4924055;28;20261;-89
2023/04/22 03:50:08;;;;;;;11.70;6.55;;;;;;;11.50;91.48;99344.69;4928193;28;20054;-89
2023/04/22 03:52:51;;;;;;;12.80;5.40;;;;;;;11.44;90.96;99337.28;4911593;28;20045;-88
2023/04/22 03:55:35;;;;;;;9.40;5.57;;;;;;;11.41;90.69;99343.75;4981906;28;20394;-88
2023/04/22 03:58:18;;;;;;;10.23;5.10;;;;;;;11.43;91.19;99331.16;4928954;28;20045;-89
2023/04/22 04:00:55;;;;;;;10.15;4.78;;;;;;;11.41;90.95;99337.59;4968875;28;20050;-88
2023/04/22 04:03:30;;;;;;;10.48;5.18;;;;;;;11.38;90.90;99335.25;4966159;28;20050;-88
2023/04/22 04:06:32;;;;;;;8.98;4.85;;;;;;;11.36;91.08;99338.06;4967446;28;20603;-88
2023/04/22 04:09:21;;;;;;;12.00;4.68;;;;;;;11.29;91.00;99337.00;4920194;28;20050;-87
2023/04/22 04:11:56;;;;;;;10.65;4.88;;;;;;;11.37;90.94;99334.44;4904499;28;20041;-88
2023/04/22 04:14:38;;;;;;;7.95;4.47;;;;;;;11.33;91.34;99332.22;4948340;28;20049;-88
2023/04/22 04:17:17;;;;;;;7.82;4.72;;;;;;;11.37;90.83;99336.22;4914611;28;20051;-89
2023/04/22 04:19:49;;;;;;;8.25;4.90;;;;;;;11.34;90.98;99328.56;4945917;28;20095;-88
2023/04/22 04:22:48;;;;;;;8.98;4.68;;;;;;;11.33;90.83;99324.25;4919541;28;20425;-88
2023/04/22 04:25:43;;;;;;;10.52;4.97;;;;;;;11.28;90.98;99325.53;4933542;28;20046;-88
2023/04/22 04:28:43;;;;;;;13.63;4.82;;;;;;;11.27;90.57;99325.69;4876361;28;20142;-88
2023/04/22 04:31:26;;;;;;;10.93;5.78;;;;;;;11.35;90.69;99330.22;4974460;28;20410;-88
2023/04/22 04:34:26;;;;;;;12.77;5.13;;;;;;;11.21;90.71;99318.31;4984316;28;20068;-89
2023/04/22 04:37:27;;;;;;;11.10;4.70;;;;;;;11.30;90.82;99317.41;4949640;28;20132;-89
2023/04/22 04:40:17;;;;;;;14.43;5.55;;;;;;;11.34;90.71;99321.41;4921867;28;20514;-88
2023/04/22 04:43:18;;;;;;;13.60;5.22;;;;;;;11.24;90.63;99318.00;4944448;28;20063;-89
2023/04/22 04:45:55;;;;;;;7.45;4.82;;;;;;;11.31;90.58;99327.06;4970334;28;20048;-88
2023/04/22 04:48:36;;;;;;;9.68;5.05;;;;;;;11.28;90.56;99316.72;4941091;28;20120;-89
2023/04/22 04:51:26;;;;;;;12.20;6.10;;;;;;;11.24;89.55;99315.34;4947782;28;20049;-89
2023/04/22 04:54:14;;;;;;;10.32;4.95;;;;;;;11.29;89.87;99315.72;4891073;28;21697;-88
2023/04/22 04:57:05;;;;;;;10.68;5.22;;;;;;;11.27;90.23;99315.91;4937449;28;20050;-88
2023/04/22 04:59:56;;;;;;;9.57;5.05;;;;;;;11.31;90.00;99316.41;4880044;28;20374;-88
2023/04/22 05:03:24;;;;;;;11.60;5.82;;;;;;;11.15;89.13;99311.81;4945971;28;20369;-88
2023/04/22 05:06:07;;;;;;;10.20;5.13;;;;;;;11.29;89.58;99316.56;4942243;28;20490;-88
2023/04/22 05:08:40;;;;;;;;;;;;;;;11.07;90.29;99314.38;4925924;28;20410;-89
2023/04/22 05:11:24;;;;;;;13.13;5.72;;;;;;;11.21;89.77;99323.63;4897451;28;19932;-88
2023/04/22 05:14:13;;;;;;;12.57;5.03;;;;;;;11.28;89.30;99314.06;4885817;28;20042;-89
2023/04/22 05:17:03;;;;;;;11.95;5.40;;;;;;;11.21;90.46;99315.66;4921419;28;20133;-88
2023/04/22 05:19:44;;;;;;;10.77;5.90;;;;;;;11.24;89.47;99323.31;4872907;28;20065;-89
2023/04/22 05:22:42;;;;;;;12.80;5.10;;;;;;;11.24;89.27;99320.66;4856752;28;20065;-88
2023/04/22 05:26:01;;;;;;;16.42;7.25;;;;;;;11.28;89.79;99317.56;4916198;28;20632;-88
2023/04/22 05:28:36;;;;;;;10.05;5.57;;;;;;;11.28;89.30;99316.72;4929346;28;20046;-87
2023/04/22 05:31:09;;;;;;;10.82;5.50;;;;;;;11.26;90.45;99316.03;4891199;28;20045;-88
2023/04/22 05:34:11;;;;;;;10.13;5.70;;;;;;;11.18;91.10;99311.50;4955947;28;20049;-88
2023/04/22 05:37:42;;;;;;;10.02;5.80;;;;;;;11.14;91.83;99322.56;4888962;28;20113;-88
2023/04/22 05:40:43;;;;;;;11.75;4.93;;;;;;;11.19;91.63;99317.63;4861212;28;20036;-88
2023/04/22 05:43:57;;;;;;;10.45;5.32;;;;;;;11.13;92.34;99327.06;4889852;28;20072;-89
2023/04/22 05:46:34;;;;;;;10.27;5.50;;;;;;;11.26;91.66;99327.50;4939039;28;20059;-88
2023/04/22 05:49:21;;;;;;;11.60;5.50;;;;;;;11.24;91.84;99324.16;4946965;28;20057;-88
2023/04/22 05:52:11;;;;;;;10.68;5.32;;;;;;;11.27;91.61;99328.34;5001823;28;20395;-88
2023/04/22 05:55:21;;;;;;;20.17;6.63;;;;;;;11.27;91.08;99328.34;4973834;28;20053;-88
2023/04/22 05:58:12;;;;;;;13.13;6.13;;;;;;;11.33;91.04;99337.53;4932484;28;20087;-88
2023/04/22 06:00:53;;;;;;;12.10;6.18;;;;;;;11.34;90.65;99328.56;4946917;28;20080;-89
2023/04/22 06:03:40;;;;;;;14.02;6.03;;;;;;;11.31;90.91;99332.38;4986848;28;20072;-88
2023/04/22 06:06:14;;;;;;;12.95;5.75;;;;;;;11.37;90.35;99334.44;4971359;28;20080;-88
2023/04/22 06:08:55;;;;;;;12.70;6.38;;;;;;;11.29;89.98;99329.03;4975774;28;20052;-88
2023/04/22 06:11:29;;;;;;;15.05;6.55;;;;;;;11.33;90.41;99338.38;4968619;28;20119;-89
2023/04/22 06:14:11;;;;;;;12.52;6.35;;;;;;;11.32;90.87;99333.19;4880937;28;20144;-89
2023/04/22 06:17:00;;;;;;;14.30;7.53;;;;;;;11.33;90.93;99338.38;4923591;28;20069;-88
2023/04/22 06:19:36;;;;;;;19.70;8.20;;;;;;;11.41;91.16;99340.25;4935609;28;20440;-89
2023/04/22 06:22:23;;;;;;;16.55;7.93;;;;;;;11.39;90.88;99343.06;4926055;28;20045;-88
2023/04/22 06:25:11;;;;;;;23.25;8.95;;;;;;;11.25;91.89;99336.47;4959580;28;20049;-88
2023/04/22 06:27:51;;;;;;;18.05;8.48;;;;;;;11.38;91.55;99346.72;4947498;28;20760;-89
2023/04/22 06:30:24;;;;;;;21.08;9.15;;;;;;;11.37;92.43;99346.88;4960148;28;20050;-88
2023/04/22 06:32:55;;;;;;;35.88;11.48;;;;;;;11.39;92.32;99342.25;4985098;28;20206;-89
2023/04/22 06:35:27;;;;;;;24.23;10.27;;;;;;;11.36;92.77;99348.69;4961080;28;20164;-88
2023/04/22 06:37:56;;;;;;;61.33;12.30;;;;;;;11.38;92.69;99352.03;4948321;28;20103;-88
2023/04/22 06:40:42;;;;;;;23.70;11.35;;;;;;;11.39;92.83;99356.34;4967533;28;20049;-89
2023/04/22 06:43:52;;;;;;;29.52;10.27;;;;;;;11.36;93.90;99361.97;4976497;28;20510;-88
2023/04/22 06:47:33;;;;;;;25.27;10.63;;;;;;;11.49;94.17;99366.91;4839364;28;20473;-88
2023/04/22 06:50:44;;;;;;;21.10;10.97;;;;;;;11.52;94.39;99366.59;4803524;29;20130;-88
2023/04/22 06:53:45;;;;;;;20.58;9.48;;;;;;;11.64;93.96;99359.22;4800052;29;20470;-86
2023/04/22 06:56:20;;;;;;;17.10;8.55;;;;;;;11.74;93.41;99359.97;4867145;28;20614;-88
2023/04/22 06:58:56;;;;;;;17.92;7.97;;;;;;;11.75;93.18;99353.66;4953256;28;20772;-87
2023/04/22 07:01:28;;;;;;;17.40;8.03;;;;;;;11.85;92.69;99356.22;4908163;28;20160;-87
2023/04/22 07:03:56;;;;;;;20.73;9.45;;;;;;;11.86;92.55;99357.91;4910610;28;20051;-88
2023/04/22 07:06:24;;;;;;;20.55;9.40;;;;;;;11.91;92.82;99358.31;4857547;28;20070;-87
2023/04/22 07:09:09;;;;;;;17.15;8.57;;;;;;;11.98;92.77;99354.00;4915779;28;20407;-88
2023/04/22 07:11:41;;;;;;;16.70;8.18;;;;;;;12.03;92.18;99353.53;4925410;28;20042;-88
2023/04/22 07:14:45;;;;;;;19.65;8.63;;;;;;;12.02;92.06;99350.06;4909832;28;20079;-87
2023/04/22 07:17:12;;;;;;;17.17;8.63;;;;;;;11.93;91.77;99333.22;4943333;28;20047;-88
2023/04/22 07:19:38;;;;;;;14.98;8.13;;;;;;;12.05;91.63;99339.09;4973574;28;20051;-87
2023/04/22 07:22:06;;;;;;;18.95;9.10;;;;;;;12.08;91.75;99338.75;4999603;28;20410;-88
2023/04/22 07:24:33;;;;;;;18.95;9.25;;;;;;;12.16;91.57;99335.31;4986472;28;20092;-87
2023/04/22 07:27:02;;;;;;;20.17;10.43;;;;;;;12.21;91.22;99341.00;5018322;28;20050;-87
2023/04/22 07:29:28;;;;;;;18.45;8.68;;;;;;;12.27;91.11;99340.38;5019487;28;20411;-88
2023/04/22 07:31:55;;;;;;;19.45;8.85;;;;;;;12.36;91.43;99331.44;4997396;28;20057;-88
2023/04/22 07:34:22;;;;;;;18.70;9.25;;;;;;;12.45;91.04;99326.16;5007924;28;20140;-87
2023/04/22 07:36:52;;;;;;;19.85;9.15;;;;;;;12.53;91.03;99329.69;4999809;28;20046;-87
2023/04/22 07:39:19;;;;;;;24.92;10.30;;;;;;;12.54;90.55;99325.19;5004912;28;20136;-88
2023/04/22 07:41:46;;;;;;;17.85;9.95;;;;;;;12.57;90.00;99331.03;4986630;28;20472;-87
2023/04/22 07:44:16;;;;;;;18.45;8.98;;;;;;;12.65;89.59;99334.72;5002838;28;20052;-87
2023/04/22 07:46:43;;;;;;;20.48;10.32;;;;;;;12.65;88.48;99326.75;5010593;28;20049;-87
2023/04/22 07:49:12;;;;;;;19.73;9.13;;;;;;;12.70;88.22;99330.56;4982682;28;20132;-86
2023/04/22 07:51:40;;;;;;;20.23;9.50;;;;;;;12.73;87.85;99318.75;5005250;28;20107;-87
2023/04/22 07:54:06;;;;;;;23.25;9.45;;;;;;;12.73;87.85;99318.75;4992864;28;20554;-88
2023/04/22 07:56:34;;;;;;;20.30;9.13;;;;;;;12.80;87.66;99327.78;4988851;28;20132;-87
2023/04/22 07:59:02;;;;;;;21.20;9.55;;;;;;;12.84;87.85;99320.28;5010736;28;20045;-88
2023/04/22 08:01:31;;;;;;;20.67;8.98;;;;;;;12.85;88.26;99321.94;5002805;28;20037;-87
2023/04/22 08:03:58;;;;;;;27.38;10.82;;;;;;;12.86;89.23;99319.13;4998191;28;20045;-87
2023/04/22 08:06:26;;;;;;;24.05;9.68;;;;;;;12.92;89.25;99325.63;4976516;28;20104;-87
2023/04/22 08:08:53;;;;;;;21.80;10.70;;;;;;;12.97;89.12;99320.63;5013812;28;20136;-87
2023/04/22 08:11:20;;;;;;;19.80;9.43;;;;;;;13.00;88.92;99317.63;5011503;28;20132;-88
2023/04/22 08:13:47;;;;;;;22.38;9.40;;;;;;;13.08;89.53;99328.34;5003527;28;20045;-88
2023/04/22 08:16:14;;;;;;;17.75;9.13;;;;;;;13.13;88.75;99327.84;5010954;28;20163;-88
2023/04/22 08:18:41;;;;;;;19.88;9.90;;;;;;;13.17;88.20;99319.34;4983721;28;20136;-88
2023/04/22 08:21:08;;;;;;;21.73;9.40;;;;;;;13.22;87.64;99319.66;4984615;28;20155;-87
2023/04/22 08:23:35;;;;;;;23.02;10.07;;;;;;;13.25;87.99;99326.50;5007706;28;20129;-87
2023/04/22 08:26:02;;;;;;;22.55;9.18;;;;;;;13.25;88.20;99321.16;4993211;28;20049;-88
2023/04/22 08:28:29;;;;;;;20.35;9.70;;;;;;;13.31;87.93;99320.56;5000037;28;20041;-88
2023/04/22 08:30:56;;;;;;;23.77;9.68;;;;;;;13.33;88.23;99315.03;4978647;28;20404;-88
2023/04/22 08:33:23;;;;;;;22.15;9.90;;;;;;;13.40;88.10;99324.06;4999029;28;20049;-88
2023/04/22 08:35:52;;;;;;;21.55;10.18;;;;;;;13.43;87.80;99323.72;5015027;28;20053;-88
2023/04/22 08:38:19;;;;;;;19.77;9.52;;;;;;;13.45;87.39;99321.72;5001098;28;20049;-87
2023/04/22 08:40:46;;;;;;;28.63;11.00;;;;;;;13.49;87.63;99324.91;4986106;28;20038;-88
2023/04/22 08:43:13;;;;;;;23.77;9.77;;;;;;;13.52;88.12;99319.22;4995699;28;20128;-88
2023/04/22 08:45:41;;;;;;;20.75;9.82;;;;;;;13.54;88.23;99319.91;5014936;28;20061;-88
2023/04/22 08:48:08;;;;;;;20.77;9.27;;;;;;;13.61;88.30;99324.41;5000008;28;20497;-88
2023/04/22 08:50:38;;;;;;;20.98;10.15;;;;;;;13.63;88.33;99321.53;5006787;28;20038;-87
2023/04/22 08:53:05;;;;;;;15.80;7.65;;;;;;;13.71;88.81;99318.03;4983990;28;20113;-86
2023/04/22 08:55:33;;;;;;;17.83;9.07;;;;;;;13.75;88.99;99320.19;5002495;28;20046;-86
2023/04/22 08:58:00;;;;;;;23.90;10.57;;;;;;;13.81;88.79;99321.34;4985783;28;20081;-86
2023/04/22 09:00:27;;;;;;;20.33;8.88;;;;;;;13.87;88.85;99323.38;5003949;28;20045;-87
2023/04/22 09:02:55;;;;;;;19.88;9.45;;;;;;;13.93;89.08;99313.84;5000768;28;20045;-86
2023/04/22 09:05:25;;;;;;;20.38;9.85;;;;;;;13.96;89.36;99314.31;4979722;28;20053;-87
2023/04/22 09:07:54;;;;;;;16.83;8.00;;;;;;;14.01;89.33;99327.16;4984978;28;20049;-87
2023/04/22 09:10:21;;;;;;;17.92;8.63;;;;;;;14.05;88.73;99315.97;5005327;28;20108;-87
2023/04/22 09:12:48;;;;;;;18.70;9.52;;;;;;;14.07;88.91;99302.47;4999045;28;20431;-86
2023/04/22 09:15:15;;;;;;;20.23;8.38;;;;;;;14.15;89.23;99305.09;4992166;28;20414;-87
2023/04/22 09:17:42;;;;;;;17.13;8.15;;;;;;;14.20;88.63;99301.94;4995495;28;20071;-87
2023/04/22 09:20:14;;;;;;;18.55;9.45;;;;;;;14.20;88.11;99292.06;4987967;28;20057;-87
2023/04/22 09:22:43;;;;;;;13.25;7.18;;;;;;;14.27;86.96;99293.06;5012800;28;20069;-88
2023/04/22 09:25:23;;;;;;;15.25;7.15;;;;;;;14.27;85.37;99294.88;4995808;28;20045;-87
2023/04/22 09:27:55;;;;;;;13.10;7.15;;;;;;;14.34;85.25;99283.31;4993387;28;20050;-88
2023/04/22 09:30:37;;;;;;;13.30;7.03;;;;;;;14.36;83.63;99293.03;4969875;28;20050;-88
2023/04/22 09:33:09;;;;;;;14.40;7.18;;;;;;;14.42;82.99;99292.31;4991198;28;20049;-88
2023/04/22 09:35:40;;;;;;;12.98;6.55;;;;;;;14.42;82.45;99293.13;4986438;28;20060;-88
2023/04/22 09:38:09;;;;;;;12.15;6.30;;;;;;;14.45;82.19;99289.28;4958665;28;20046;-88
2023/04/22 09:40:42;;;;;;;13.52;7.45;;;;;;;14.46;82.12;99282.97;4956989;28;20538;-86
2023/04/22 09:43:10;;;;;;;14.57;6.45;;;;;;;14.50;81.68;99292.25;4984405;28;20316;-87
2023/04/22 09:45:42;;;;;;;22.25;6.72;;;;;;;14.58;81.44;99296.78;4993030;28;20081;-87
2023/04/22 09:48:13;;;;;;;12.57;6.97;;;;;;;14.58;81.26;99288.75;4992175;28;20071;-87
2023/04/22 09:50:44;;;;;;;15.50;8.25;;;;;;;14.65;80.83;99298.56;4978698;28;20042;-87
2023/04/22 09:53:18;;;;;;;13.65;7.13;;;;;;;14.70;81.45;99290.84;4971871;28;20057;-88
2023/04/22 09:55:53;;;;;;;13.32;7.82;;;;;;;14.71;81.09;99275.69;4998031;28;20115;-87
2023/04/22 09:58:26;;;;;;;19.80;8.95;;;;;;;14.80;81.35;99277.28;4957224;28;20160;-87
2023/04/22 10:01:02;;;;;;;19.02;8.23;;;;;;;14.85;80.95;99279.41;4979769;28;20088;-88
2023/04/22 10:03:31;;;;;;;21.95;8.55;;;;;;;14.85;80.59;99280.25;4997448;28;20154;-88
2023/04/22 10:06:01;;;;;;;20.10;7.53;;;;;;;14.89;80.33;99278.91;4991515;28;20462;-88
2023/04/22 10:08:35;;;;;;;18.55;9.40;;;;;;;14.90;80.12;99267.19;4988278;28;20144;-87
2023/04/22 10:11:04;;;;;;;20.13;9.55;;;;;;;14.95;80.01;99270.16;4986840;28;20042;-88
2023/04/22 10:13:34;;;;;;;20.65;8.35;;;;;;;15.04;79.71;99272.78;4954155;28;20046;-88
2023/04/22 10:16:13;;;;;;;18.38;8.77;;;;;;;15.04;79.79;99264.78;4975755;28;20109;-87
2023/04/22 10:18:47;;;;;;;19.23;9.23;;;;;;;15.13;80.35;99261.00;4954379;28;20599;-88
2023/04/22 10:21:19;;;;;;;20.83;10.10;;;;;;;15.14;79.67;99265.38;4932900;28;20066;-88
2023/04/22 10:23:58;;;;;;;23.98;9.15;;;;;;;15.13;79.08;99267.19;4933660;28;20561;-87
2023/04/22 10:26:56;;;;;;;18.85;8.93;;;;;;;15.14;78.45;99258.16;4928574;28;20050;-88
2023/04/22 10:29:35;;;;;;;18.80;8.63;;;;;;;15.19;78.89;99260.31;4984198;28;20558;-88
2023/04/22 10:32:21;;;;;;;20.35;8.57;;;;;;;15.24;78.40;99255.25;4956949;28;20038;-88
2023/04/22 10:35:17;;;;;;;;;;;;;;;;;;;;;
2023/04/22 10:38:18;;;;;;;15.35;7.70;;;;;;;15.34;78.34;99249.63;4861063;28;20237;-88
2023/04/22 10:40:59;;;;;;;15.07;8.05;;;;;;;15.38;78.19;99242.91;4915108;28;20564;-88
2023/04/22 10:44:21;;;;;;;16.83;8.13;;;;;;;15.40;77.25;99247.06;4985142;28;20207;-88
2023/04/22 10:46:52;;;;;;;15.35;7.32;;;;;;;15.47;77.75;99239.16;4993803;28;20095;-88
2023/04/22 10:49:24;;;;;;;16.77;7.15;;;;;;;15.45;77.59;99235.84;4974297;28;20053;-89
2023/04/22 10:51:57;;;;;;;19.15;8.90;;;;;;;15.49;77.17;99234.44;4898340;28;20170;-89
2023/04/22 10:54:35;;;;;;;18.13;7.90;;;;;;;15.55;76.66;99236.41;4964300;28;20075;-89
2023/04/22 10:57:37;;;;;;;14.93;7.32;;;;;;;15.52;75.37;99233.25;4922065;28;20047;-88
2023/04/22 11:00:30;;;;;;;16.48;7.78;;;;;;;15.60;72.96;99233.19;4995491;28;20053;-88
2023/04/22 11:03:31;;;;;;;19.27;8.48;;;;;;;15.62;73.98;99225.78;4921576;28;20053;-88
2023/04/22 11:06:16;;;;;;;15.68;7.75;;;;;;;15.69;74.16;99225.88;5000198;28;20574;-88
2023/04/22 11:08:45;;;;;;;18.08;7.57;;;;;;;15.77;74.66;99215.13;5004703;28;20038;-89
2023/04/22 11:11:18;;;;;;;22.73;8.75;;;;;;;15.82;73.76;99210.91;4979280;28;20057;-89
2023/04/22 11:13:59;;;;;;;20.73;8.25;;;;;;;15.85;74.39;99207.03;4991975;28;20045;-88
2023/04/22 11:16:29;;;;;;;15.50;7.15;;;;;;;15.90;74.71;99211.78;5004736;28;20384;-89
2023/04/22 11:18:56;;;;;;;14.55;7.20;;;;;;;15.96;74.26;99217.25;4979077;28;20045;-88
2023/04/22 11:21:26;;;;;;;19.38;7.47;;;;;;;15.98;73.97;99220.56;4950298;28;20037;-89
2023/04/22 11:24:05;;;;;;;14.32;6.82;;;;;;;15.97;73.79;99215.41;4998459;28;20045;-88
2023/04/22 11:26:34;;;;;;;23.05;7.78;;;;;;;16.02;73.15;99210.31;4979341;28;20500;-88
2023/04/22 11:29:02;;;;;;;14.30;7.43;;;;;;;16.04;73.95;99201.06;4984240;28;20046;-88
2023/04/22 11:31:29;;;;;;;20.70;8.63;;;;;;;16.05;73.18;99201.91;4972866;28;20055;-89
2023/04/22 11:34:04;;;;;;;17.38;7.30;;;;;;;16.10;72.85;99210.19;4989388;28;20107;-88
2023/04/22 11:36:31;;;;;;;17.60;7.50;;;;;;;16.17;72.87;99210.31;5006188;28;20073;-89
2023/04/22 11:38:57;;;;;;;14.80;7.90;;;;;;;16.18;72.37;99204.75;4963404;28;20049;-88
2023/04/22 11:41:26;;;;;;;13.43;7.00;;;;;;;16.24;71.92;99200.50;4977523;28;20573;-89
2023/04/22 11:44:02;;;;;;;14.43;6.22;;;;;;;16.24;71.81;99201.31;4985463;28;20469;-88
2023/04/22 11:50:24;;;;;;;13.52;6.53;;;;;;;16.29;68.67;99198.09;4933052;28;20464;-88
2023/04/22 11:53:59;;;;;;;14.95;6.97;;;;;;;16.43;69.68;99199.06;4861067;28;20054;-88
2023/04/22 11:57:50;;;;;;;10.27;5.75;;;;;;;16.40;68.79;99200.25;4744344;29;20055;-89
2023/04/22 12:01:12;;;;;;;9.48;5.45;;;;;;;16.43;68.24;99183.81;4815665;29;20070;-88
2023/04/22 12:03:40;;;;;;;8.77;4.88;;;;;;;16.49;68.43;99188.41;4855248;29;20597;-88
2023/04/22 12:06:11;;;;;;;14.93;5.78;;;;;;;16.55;68.27;99188.69;4857211;29;20049;-88
2023/04/22 12:08:43;;;;;;;14.27;5.32;;;;;;;16.55;67.31;99186.81;4884130;29;20058;-88
2023/04/22 12:11:14;;;;;;;13.63;5.15;;;;;;;16.55;65.63;99181.47;4765681;29;20716;-89
2023/04/22 12:14:09;;;;;;;9.82;5.10;;;;;;;16.57;65.44;99182.13;4802158;29;20068;-89
2023/04/22 12:17:33;;;;;;;12.60;5.32;;;;;;;16.59;66.81;99172.03;4699291;29;20062;-89
2023/04/22 12:20:46;;;;;;;7.85;4.22;;;;;;;16.60;66.22;99162.97;4814371;29;20126;-88
2023/04/22 12:23:28;;;;;;;12.50;4.95;;;;;;;16.68;66.42;99167.38;4737197;29;20053;-88